createdAt,value
2022-08-05T00:01:27.644Z,21.26
2022-08-05T00:03:54.813Z,21.17
2022-08-05T00:06:32.236Z,21.14
2022-08-05T00:09:00.427Z,20.92
2022-08-05T00:11:34.826Z,20.72
2022-08-05T00:14:13.071Z,20.72
2022-08-05T00:16:52.548Z,20.78
2022-08-05T00:19:23.407Z,20.73
2022-08-05T00:21:51.608Z,20.78
2022-08-05T00:24:24.549Z,20.69
2022-08-05T00:26:52.954Z,20.42
2022-08-05T00:29:22.755Z,20.10
2022-08-05T00:32:10.265Z,19.98
2022-08-05T00:35:06.116Z,20.03
2022-08-05T00:37:28.835Z,20.11
2022-08-05T00:40:17.814Z,20.13
2022-08-05T00:42:53.097Z,20.24
2022-08-05T00:45:28.255Z,20.34
2022-08-05T00:48:10.423Z,20.36
2022-08-05T00:50:39.530Z,20.40
2022-08-05T00:53:09.910Z,20.38
2022-08-05T00:55:55.057Z,20.42
2022-08-05T00:58:21.492Z,20.45
2022-08-05T01:00:54.069Z,20.40
2022-08-05T01:03:22.899Z,20.35
2022-08-05T01:05:51.063Z,20.38
2022-08-05T01:08:41.774Z,20.38
2022-08-05T01:11:06.696Z,20.46
2022-08-05T01:13:58.018Z,20.51
2022-08-05T01:16:30.459Z,20.53
2022-08-05T01:19:01.113Z,20.39
2022-08-05T01:21:59.859Z,20.45
2022-08-05T01:24:39.976Z,20.53
2022-08-05T01:27:32.908Z,20.39
2022-08-05T01:30:01.584Z,20.39
2022-08-05T01:32:28.028Z,20.33
2022-08-05T01:34:58.517Z,20.32
2022-08-05T01:37:29.549Z,20.31
2022-08-05T01:39:59.434Z,20.32
2022-08-05T01:42:26.519Z,20.33
2022-08-05T01:44:54.248Z,20.31
2022-08-05T01:47:21.565Z,20.30
2022-08-05T01:50:01.535Z,20.25
2022-08-05T01:52:29.150Z,20.27
2022-08-05T01:54:58.189Z,20.20
2022-08-05T01:58:18.879Z,20.23
2022-08-05T02:00:15.183Z,20.27
2022-08-05T02:02:54.890Z,20.28
2022-08-05T02:05:23.705Z,20.28
2022-08-05T02:07:57.871Z,20.26
2022-08-05T02:10:28.693Z,20.20
2022-08-05T02:12:56.910Z,20.21
2022-08-05T02:15:33.380Z,20.20
2022-08-05T02:18:33.209Z,20.01
2022-08-05T02:21:03.625Z,20.13
2022-08-05T02:23:33.499Z,20.10
2022-08-05T02:26:00.623Z,20.02
2022-08-05T02:28:32.131Z,20.09
2022-08-05T02:31:14.278Z,20.04
2022-08-05T02:33:44.913Z,20.04
2022-08-05T02:36:16.060Z,20.06
2022-08-05T02:38:53.623Z,20.02
2022-08-05T02:41:20.999Z,20.07
2022-08-05T02:44:05.932Z,20.09
2022-08-05T02:46:34.099Z,20.09
2022-08-05T02:49:00.962Z,20.08
2022-08-05T02:51:28.520Z,20.07
2022-08-05T02:54:34.821Z,20.02
2022-08-05T02:57:00.430Z,19.98
2022-08-05T02:59:27.795Z,19.96
2022-08-05T03:01:58.090Z,19.90
2022-08-05T03:04:25.270Z,19.97
2022-08-05T03:06:54.425Z,19.86
2022-08-05T03:09:36.445Z,19.77
2022-08-05T03:12:24.544Z,19.79
2022-08-05T03:14:51.391Z,19.82
2022-08-05T03:17:17.835Z,19.83
2022-08-05T03:19:46.710Z,19.86
2022-08-05T03:22:18.925Z,19.84
2022-08-05T03:24:58.503Z,19.93
2022-08-05T03:27:59.954Z,19.87
2022-08-05T03:30:30.183Z,19.82
2022-08-05T03:33:01.132Z,19.83
2022-08-05T03:35:28.538Z,19.83
2022-08-05T03:38:02.547Z,19.88
2022-08-05T03:40:31.870Z,19.88
2022-08-05T03:42:59.050Z,19.94
2022-08-05T03:45:28.025Z,19.79
2022-08-05T03:47:56.873Z,19.69
2022-08-05T03:50:23.660Z,19.60
2022-08-05T03:55:51.580Z,19.67
2022-08-05T03:56:10.322Z,19.71
2022-08-05T03:58:37.816Z,19.69
2022-08-05T04:01:07.976Z,19.66
2022-08-05T04:03:38.267Z,19.68
2022-08-05T04:06:05.764Z,19.71
2022-08-05T04:08:36.705Z,19.77
2022-08-05T04:11:04.396Z,19.69
2022-08-05T04:13:50.938Z,19.66
2022-08-05T04:16:25.040Z,19.67
2022-08-05T04:18:58.636Z,19.64
2022-08-05T04:22:09.430Z,19.62
2022-08-05T04:24:18.732Z,19.61
2022-08-05T04:26:46.293Z,19.69
2022-08-05T04:29:13.101Z,19.54
2022-08-05T04:31:40.803Z,19.44
2022-08-05T04:34:31.357Z,19.45
2022-08-05T04:36:54.159Z,19.43
2022-08-05T04:39:20.971Z,19.36
2022-08-05T04:41:48.515Z,19.49
2022-08-05T04:44:21.383Z,19.53
2022-08-05T04:46:56.471Z,19.50
2022-08-05T04:49:24.605Z,19.33
2022-08-05T04:52:05.157Z,19.31
2022-08-05T04:54:34.155Z,19.40
2022-08-05T04:57:00.631Z,19.38
2022-08-05T04:59:38.496Z,19.46
2022-08-05T05:02:37.402Z,19.51
2022-08-05T05:04:52.835Z,19.58
2022-08-05T05:07:29.452Z,19.59
2022-08-05T05:09:59.012Z,19.59
2022-08-05T05:12:29.142Z,19.65
2022-08-05T05:14:55.594Z,19.73
2022-08-05T05:17:24.627Z,19.66
2022-08-05T05:19:55.195Z,19.69
2022-08-05T05:22:26.585Z,19.63
2022-08-05T05:24:59.786Z,19.66
2022-08-05T05:27:44.499Z,19.74
2022-08-05T05:30:15.361Z,19.74
2022-08-05T05:32:55.525Z,19.81
2022-08-05T05:35:22.923Z,19.73
2022-08-05T05:37:59.726Z,19.82
2022-08-05T05:40:35.508Z,19.76
2022-08-05T05:43:02.897Z,19.69
2022-08-05T05:45:29.445Z,19.58
2022-08-05T05:48:06.852Z,19.67
2022-08-05T05:50:41.149Z,19.54
2022-08-05T05:53:20.783Z,19.70
2022-08-05T05:55:52.263Z,19.71
2022-08-05T05:58:31.639Z,19.74
2022-08-05T06:01:13.093Z,19.67
2022-08-05T06:04:00.700Z,19.55
2022-08-05T06:06:30.747Z,19.74
2022-08-05T06:08:59.590Z,19.75
2022-08-05T06:11:26.171Z,19.58
2022-08-05T06:13:55.547Z,19.79
2022-08-05T06:16:28.840Z,19.74
2022-08-05T06:19:00.292Z,19.81
2022-08-05T06:21:36.088Z,19.81
2022-08-05T06:24:04.323Z,19.85
2022-08-05T06:26:31.859Z,19.83
2022-08-05T06:29:03.531Z,19.88
2022-08-05T06:31:47.003Z,19.88
2022-08-05T06:34:13.688Z,19.84
2022-08-05T06:36:57.004Z,19.68
2022-08-05T06:39:27.330Z,19.69
2022-08-05T06:41:59.274Z,19.66
2022-08-05T06:44:26.078Z,19.57
2022-08-05T06:46:52.698Z,19.53
2022-08-05T06:49:21.378Z,19.47
2022-08-05T06:52:07.510Z,19.47
2022-08-05T06:54:53.906Z,19.46
2022-08-05T06:58:03.132Z,19.42
2022-08-05T07:00:09.638Z,19.39
2022-08-05T07:02:46.170Z,19.48
2022-08-05T07:05:15.314Z,19.51
2022-08-05T07:07:48.818Z,19.46
2022-08-05T07:10:16.422Z,19.45
2022-08-05T07:13:01.590Z,19.45
2022-08-05T07:16:01.990Z,19.51
2022-08-05T07:18:31.901Z,19.58
2022-08-05T07:20:58.628Z,19.54
2022-08-05T07:23:31.364Z,19.55
2022-08-05T07:25:57.793Z,19.59
2022-08-05T07:28:25.212Z,19.64
2022-08-05T07:30:53.994Z,19.64
2022-08-05T07:33:36.918Z,19.66
2022-08-05T07:36:20.747Z,19.66
2022-08-05T07:38:48.934Z,19.68
2022-08-05T07:42:13.148Z,19.76
2022-08-05T07:44:05.754Z,19.77
2022-08-05T07:46:41.110Z,19.82
2022-08-05T07:49:14.801Z,19.74
2022-08-05T07:51:54.017Z,19.84
2022-08-05T07:54:31.430Z,19.86
2022-08-05T07:57:16.854Z,19.94
2022-08-05T07:59:50.276Z,19.93
2022-08-05T08:02:17.820Z,19.95
2022-08-05T08:04:48.562Z,19.98
2022-08-05T08:07:15.492Z,20.08
2022-08-05T08:09:42.631Z,20.09
2022-08-05T08:12:30.622Z,19.93
2022-08-05T08:14:55.674Z,19.91
2022-08-05T08:17:23.432Z,20.04
2022-08-05T08:20:21.751Z,20.15
2022-08-05T08:22:36.530Z,20.30
2022-08-05T08:25:04.028Z,20.46
2022-08-05T08:27:47.441Z,20.40
2022-08-05T08:30:19.002Z,20.33
2022-08-05T08:32:48.022Z,20.39
2022-08-05T08:35:17.659Z,20.39
2022-08-05T08:37:45.704Z,20.55
2022-08-05T08:40:20.012Z,20.67
2022-08-05T08:42:52.542Z,20.64
2022-08-05T08:45:26.535Z,20.62
2022-08-05T08:48:12.845Z,20.56
2022-08-05T08:51:03.902Z,20.65
2022-08-05T08:53:28.883Z,20.68
2022-08-05T08:56:03.406Z,20.72
2022-08-05T08:58:43.192Z,20.72
2022-08-05T09:01:16.252Z,20.85
2022-08-05T09:03:55.158Z,20.89
2022-08-05T09:06:28.097Z,20.93
2022-08-05T09:08:57.199Z,21.07
2022-08-05T09:11:51.345Z,21.05
2022-08-05T09:14:56.508Z,21.00
2022-08-05T09:16:58.861Z,20.76
2022-08-05T09:19:27.925Z,20.74
2022-08-05T09:22:23.144Z,20.72
2022-08-05T09:24:59.986Z,20.62
2022-08-05T09:28:04.191Z,20.56
2022-08-05T09:30:23.236Z,20.55
2022-08-05T09:32:50.275Z,20.58
2022-08-05T09:35:20.168Z,20.56
2022-08-05T09:38:17.324Z,20.61
2022-08-05T09:40:44.592Z,20.61
2022-08-05T09:43:49.365Z,20.51
2022-08-05T09:46:29.971Z,20.43
2022-08-05T09:49:08.199Z,20.36
2022-08-05T09:51:43.900Z,20.44
2022-08-05T09:54:15.441Z,20.37
2022-08-05T09:56:51.750Z,20.34
2022-08-05T09:59:19.021Z,20.37
2022-08-05T10:01:47.363Z,20.34
2022-08-05T10:04:16.061Z,20.26
2022-08-05T10:06:58.999Z,20.23
2022-08-05T10:09:27.956Z,20.30
2022-08-05T10:11:56.222Z,20.25
2022-08-05T10:14:30.323Z,20.17
2022-08-05T10:17:14.134Z,20.23
2022-08-05T10:20:03.884Z,20.17
2022-08-05T10:22:37.977Z,20.02
2022-08-05T10:25:09.554Z,20.15
2022-08-05T10:28:13.774Z,20.07
2022-08-05T10:31:19.837Z,20.09
2022-08-05T10:33:14.858Z,20.14
2022-08-05T10:35:44.366Z,20.07
2022-08-05T10:38:11.754Z,20.11
2022-08-05T10:40:57.887Z,20.06
2022-08-05T10:43:53.987Z,20.21
2022-08-05T10:46:23.852Z,20.27
2022-08-05T10:48:58.005Z,20.38
2022-08-05T10:51:29.185Z,20.41
2022-08-05T10:54:00.885Z,20.38
2022-08-05T10:56:43.796Z,20.36
2022-08-05T11:00:02.219Z,20.30
2022-08-05T11:02:14.649Z,20.37
2022-08-05T11:04:57.646Z,20.29
2022-08-05T11:07:32.862Z,20.50
2022-08-05T11:10:21.635Z,20.54
2022-08-05T11:12:50.335Z,20.47
2022-08-05T11:15:59.054Z,20.46
2022-08-05T11:18:34.131Z,20.33
2022-08-05T11:21:02.879Z,20.35
2022-08-05T11:24:03.129Z,20.28
2022-08-05T11:26:32.619Z,20.32
2022-08-05T11:29:11.646Z,20.34
2022-08-05T11:31:56.271Z,20.32
2022-08-05T11:34:52.095Z,20.46
2022-08-05T11:38:28.065Z,20.41
2022-08-05T11:41:14.152Z,20.28
2022-08-05T11:44:08.339Z,20.34
2022-08-05T11:47:09.911Z,20.24
2022-08-05T11:49:38.662Z,20.15
2022-08-05T11:52:11.601Z,20.12
2022-08-05T11:54:40.596Z,20.13
2022-08-05T11:57:24.859Z,20.08
2022-08-05T11:59:54.901Z,19.95
2022-08-05T12:02:30.181Z,19.78
2022-08-05T12:04:59.590Z,19.78
2022-08-05T12:08:10.228Z,19.75
2022-08-05T12:10:12.994Z,19.28
2022-08-05T12:12:39.709Z,19.15
2022-08-05T12:15:38.407Z,18.84
2022-08-05T12:18:10.842Z,18.88
2022-08-05T12:20:38.832Z,18.88
2022-08-05T12:23:09.767Z,19.05
2022-08-05T12:25:53.486Z,19.19
2022-08-05T12:28:32.954Z,19.24
2022-08-05T12:31:02.302Z,19.25
2022-08-05T12:33:36.430Z,19.21
2022-08-05T12:36:03.902Z,19.14
2022-08-05T12:38:35.811Z,19.15
2022-08-05T12:41:03.213Z,19.19
2022-08-05T12:43:32.229Z,19.16
2022-08-05T12:45:58.920Z,19.23
2022-08-05T12:48:27.164Z,19.19
2022-08-05T12:52:10.740Z,19.13
2022-08-05T12:54:03.982Z,19.08
2022-08-05T12:56:35.411Z,19.08
2022-08-05T12:59:23.841Z,19.00
2022-08-05T13:02:07.656Z,19.00
2022-08-05T13:04:52.295Z,19.04
2022-08-05T13:07:56.183Z,19.12
2022-08-05T13:10:13.819Z,19.10
2022-08-05T13:12:57.248Z,19.21
2022-08-05T13:15:36.045Z,19.33
2022-08-05T13:18:18.770Z,19.32
2022-08-05T13:20:46.472Z,19.35
2022-08-05T13:23:12.935Z,19.30
2022-08-05T13:25:52.366Z,19.23
2022-08-05T13:28:25.573Z,19.16
2022-08-05T13:30:53.279Z,19.26
2022-08-05T13:34:22.397Z,19.33
2022-08-05T13:36:09.124Z,19.21
2022-08-05T13:38:42.179Z,19.13
2022-08-05T13:41:10.731Z,19.13
2022-08-05T13:43:44.650Z,19.18
2022-08-05T13:46:30.646Z,19.28
2022-08-05T13:49:04.870Z,19.30
2022-08-05T13:51:40.913Z,19.26
2022-08-05T13:54:12.684Z,19.28
2022-08-05T13:56:45.524Z,19.33
2022-08-05T13:59:20.506Z,19.38
2022-08-05T14:01:56.729Z,19.43
2022-08-05T14:04:54.163Z,19.55
2022-08-05T14:07:57.010Z,19.61
2022-08-05T14:10:18.920Z,19.55
2022-08-05T14:12:54.614Z,19.64
2022-08-05T14:16:07.072Z,19.59
2022-08-05T14:18:17.508Z,19.65
2022-08-05T14:20:47.457Z,19.70
2022-08-05T14:23:15.352Z,19.67
2022-08-05T14:25:53.956Z,19.77
2022-08-05T14:28:27.033Z,19.78
2022-08-05T14:30:54.717Z,19.78
2022-08-05T14:33:22.980Z,19.76
2022-08-05T14:35:52.060Z,19.80
2022-08-05T14:38:27.788Z,19.77
2022-08-05T14:40:59.432Z,19.70
2022-08-05T14:44:01.615Z,19.71
2022-08-05T14:46:12.344Z,19.69
2022-08-05T14:48:38.808Z,19.64
2022-08-05T14:51:05.363Z,19.63
2022-08-05T14:53:34.946Z,19.67
2022-08-05T14:56:11.245Z,19.63
2022-08-05T14:58:38.470Z,19.54
2022-08-05T15:01:24.169Z,19.69
2022-08-05T15:04:11.521Z,19.75
2022-08-05T15:06:38.767Z,19.74
2022-08-05T15:09:07.032Z,19.77
2022-08-05T15:11:51.292Z,19.75
2022-08-05T15:14:34.703Z,19.70
2022-08-05T15:17:10.032Z,19.78
2022-08-05T15:19:55.135Z,19.75
2022-08-05T15:22:22.030Z,19.73
2022-08-05T15:24:54.116Z,19.77
2022-08-05T15:27:20.561Z,19.69
2022-08-05T15:29:47.052Z,19.75
2022-08-05T15:32:21.599Z,19.61
2022-08-05T15:34:54.022Z,19.59
2022-08-05T15:38:31.840Z,19.64
2022-08-05T15:41:01.992Z,19.54
2022-08-05T15:43:01.345Z,19.56
2022-08-05T15:45:42.887Z,19.52
2022-08-05T15:48:14.274Z,19.46
2022-08-05T15:50:43.846Z,19.63
2022-08-05T15:53:12.979Z,20.27
2022-08-05T15:56:03.043Z,20.44
2022-08-05T15:58:28.450Z,20.33
2022-08-05T16:01:04.274Z,20.33
2022-08-05T16:03:42.199Z,21.38
2022-08-05T16:06:09.198Z,23.08
2022-08-05T16:08:38.050Z,23.26
2022-08-05T16:11:04.522Z,22.62
2022-08-05T16:13:34.291Z,21.97
2022-08-05T16:16:01.797Z,22.56
2022-08-05T16:18:29.950Z,21.62
2022-08-05T16:20:56.438Z,21.12
2022-08-05T16:23:22.948Z,21.24
2022-08-05T16:25:49.834Z,20.96
2022-08-05T16:28:22.313Z,21.07
2022-08-05T16:30:52.054Z,21.38
2022-08-05T16:33:19.343Z,22.27
2022-08-05T16:35:49.942Z,22.82
2022-08-05T16:38:28.149Z,21.70
2022-08-05T16:41:00.319Z,21.18
2022-08-05T16:43:28.994Z,21.20
2022-08-05T16:46:03.933Z,20.87
2022-08-05T16:48:35.677Z,20.77
2022-08-05T16:51:02.336Z,20.85
2022-08-05T16:54:04.927Z,20.66
2022-08-05T16:56:21.817Z,20.91
2022-08-05T16:58:49.856Z,21.08
2022-08-05T17:01:16.429Z,21.14
2022-08-05T17:03:45.428Z,21.38
2022-08-05T17:06:11.914Z,21.60
2022-08-05T17:08:52.461Z,21.56
2022-08-05T17:11:20.167Z,21.28
2022-08-05T17:13:50.048Z,21.12
2022-08-05T17:16:32.672Z,21.43
2022-08-05T17:18:59.833Z,22.23
2022-08-05T17:21:26.282Z,22.97
2022-08-05T17:24:19.324Z,23.15
2022-08-05T17:26:53.236Z,22.92
2022-08-05T17:29:22.455Z,21.88
2022-08-05T17:31:58.362Z,21.55
2022-08-05T17:34:30.262Z,21.25
2022-08-05T17:36:58.945Z,21.14
2022-08-05T17:39:34.098Z,20.97
2022-08-05T17:42:20.427Z,20.99
2022-08-05T17:44:51.043Z,20.91
2022-08-05T17:47:22.231Z,20.91
2022-08-05T17:50:03.826Z,20.90
2022-08-05T17:52:33.979Z,20.97
2022-08-05T17:55:00.869Z,20.76
2022-08-05T17:57:29.510Z,20.81
2022-08-05T18:00:05.516Z,20.74
2022-08-05T18:02:35.765Z,20.79
2022-08-05T18:05:05.951Z,20.65
2022-08-05T18:07:42.043Z,20.57
2022-08-05T18:10:11.002Z,20.48
2022-08-05T18:12:37.932Z,20.50
2022-08-05T18:15:05.150Z,20.33
2022-08-05T18:17:59.599Z,20.26
2022-08-05T18:20:19.376Z,20.27
2022-08-05T18:22:57.397Z,20.21
2022-08-05T18:25:25.147Z,20.18
2022-08-05T18:27:59.035Z,20.16
2022-08-05T18:30:29.191Z,20.16
2022-08-05T18:33:00.825Z,20.18
2022-08-05T18:36:01.293Z,20.15
2022-08-05T18:38:19.470Z,20.18
2022-08-05T18:41:56.358Z,20.08
2022-08-05T18:43:42.976Z,20.02
2022-08-05T18:46:15.022Z,20.03
2022-08-05T18:48:42.161Z,20.09
2022-08-05T18:52:03.354Z,19.96
2022-08-05T18:54:14.312Z,19.88
2022-08-05T18:56:40.768Z,19.89
2022-08-05T18:59:43.090Z,19.80
2022-08-05T19:01:58.194Z,19.80
2022-08-05T19:04:25.591Z,19.67
2022-08-05T19:06:53.525Z,19.63
2022-08-05T19:09:20.586Z,19.53
2022-08-05T19:11:59.810Z,19.46
2022-08-05T19:14:52.176Z,19.32
2022-08-05T19:17:14.370Z,19.22
2022-08-05T19:19:44.084Z,19.26
2022-08-05T19:22:17.082Z,19.12
2022-08-05T19:24:55.849Z,19.13
2022-08-05T19:27:22.844Z,19.10
2022-08-05T19:29:49.962Z,19.03
2022-08-05T19:32:16.450Z,18.97
2022-08-05T19:34:55.194Z,18.94
2022-08-05T19:37:29.962Z,18.86
2022-08-05T19:40:10.582Z,18.80
2022-08-05T19:42:38.827Z,18.76
2022-08-05T19:45:07.213Z,18.67
2022-08-05T19:47:37.223Z,18.60
2022-08-05T19:50:04.372Z,18.55
2022-08-05T19:52:32.701Z,18.41
2022-08-05T19:56:11.305Z,18.47
2022-08-05T19:58:06.886Z,18.43
2022-08-05T20:00:34.875Z,18.39
2022-08-05T20:03:01.482Z,18.37
2022-08-05T20:05:42.913Z,18.29
2022-08-05T20:08:09.897Z,18.24
2022-08-05T20:10:36.784Z,18.22
2022-08-05T20:13:03.377Z,18.16
2022-08-05T20:15:51.887Z,18.02
2022-08-05T20:18:33.567Z,18.07
2022-08-05T20:21:04.428Z,17.96
2022-08-05T20:23:40.238Z,17.93
2022-08-05T20:26:19.726Z,17.92
2022-08-05T20:28:48.692Z,17.89
2022-08-05T20:31:16.500Z,17.86
2022-08-05T20:33:44.074Z,17.67
2022-08-05T20:36:11.339Z,17.63
2022-08-05T20:38:38.152Z,17.61
2022-08-05T20:41:24.084Z,17.58
2022-08-05T20:43:58.648Z,17.57
2022-08-05T20:46:29.325Z,17.49
2022-08-05T20:48:55.844Z,17.42
2022-08-05T20:51:22.295Z,17.35
2022-08-05T20:53:55.092Z,17.38
2022-08-05T20:56:28.911Z,17.40
2022-08-05T20:58:56.695Z,17.25
2022-08-05T21:01:38.577Z,17.26
2022-08-05T21:04:07.226Z,17.25
2022-08-05T21:06:37.107Z,17.15
2022-08-05T21:09:05.649Z,17.10
2022-08-05T21:12:07.064Z,17.03
2022-08-05T21:14:20.045Z,16.99
2022-08-05T21:16:46.488Z,16.91
2022-08-05T21:19:13.244Z,16.92
2022-08-05T21:21:44.545Z,16.82
2022-08-05T21:24:19.502Z,16.68
2022-08-05T21:26:58.446Z,16.74
2022-08-05T21:29:26.430Z,16.67
2022-08-05T21:31:58.342Z,16.54
2022-08-05T21:34:24.904Z,16.46
2022-08-05T21:36:51.401Z,16.47
2022-08-05T21:39:27.015Z,16.50
2022-08-05T21:42:01.878Z,16.43
2022-08-05T21:44:29.814Z,16.37
2022-08-05T21:46:57.992Z,16.32
2022-08-05T21:49:48.085Z,16.31
2022-08-05T21:52:16.327Z,16.26
2022-08-05T21:54:51.283Z,16.17
2022-08-05T21:57:31.414Z,16.15
2022-08-05T22:00:07.201Z,16.17
2022-08-05T22:02:38.167Z,16.11
2022-08-05T22:05:05.078Z,16.13
2022-08-05T22:07:40.042Z,16.08
2022-08-05T22:10:27.151Z,15.98
2022-08-05T22:12:57.530Z,15.94
2022-08-05T22:16:00.750Z,15.85
2022-08-05T22:18:12.423Z,15.82
2022-08-05T22:20:41.164Z,15.77
2022-08-05T22:24:00.838Z,15.71
2022-08-05T22:26:31.322Z,15.63
2022-08-05T22:28:58.102Z,15.59
2022-08-05T22:31:24.952Z,15.52
2022-08-05T22:34:01.193Z,15.50
2022-08-05T22:36:29.073Z,15.45
2022-08-05T22:38:55.733Z,15.44
2022-08-05T22:42:04.398Z,15.40
2022-08-05T22:44:09.261Z,15.36
2022-08-05T22:46:39.516Z,15.34
2022-08-05T22:49:23.382Z,15.26
2022-08-05T22:52:06.445Z,15.27
2022-08-05T22:54:35.557Z,15.29
2022-08-05T22:57:03.393Z,15.29
2022-08-05T22:59:45.247Z,15.25
2022-08-05T23:02:16.746Z,15.22
2022-08-05T23:04:43.675Z,15.31
2022-08-05T23:07:18.284Z,15.31
2022-08-05T23:09:57.166Z,15.35
2022-08-05T23:12:29.013Z,15.30
2022-08-05T23:14:59.609Z,15.19
2022-08-05T23:17:34.851Z,15.08
2022-08-05T23:20:16.522Z,14.97
2022-08-05T23:22:47.583Z,14.84
2022-08-05T23:25:50.080Z,14.76
2022-08-05T23:28:01.770Z,14.69
2022-08-05T23:30:29.225Z,14.60
2022-08-05T23:32:57.902Z,14.53
2022-08-05T23:35:25.443Z,14.43
2022-08-05T23:37:55.172Z,14.35
2022-08-05T23:40:27.111Z,14.30
2022-08-05T23:42:53.947Z,14.28
2022-08-05T23:45:20.527Z,14.22
2022-08-05T23:47:50.369Z,14.19
2022-08-05T23:50:20.483Z,14.11
2022-08-05T23:52:49.557Z,14.05
2022-08-05T23:55:17.029Z,14.00
2022-08-05T23:57:43.895Z,13.94
